Time;durP1;ratioP1;P1;durP2;ratioP2;P2;SDS_P1;SDS_P2;PMS_P1;PMS_P2;Temp;Humidity;BMP_temperature;BMP_pressure;BME280_temperature;BME280_humidity;BME280_pressure;Samples;Min_cycle;Max_cycle;Signal;HPM_P1;HPM_P2
2024/03/16 00:00:45;;;;;;;3.40;2.20;;;11.70;99.90;;;;;;5029240;28;20946;-65
2024/03/16 00:03:11;;;;;;;3.37;2.03;;;11.80;99.90;;;;;;5034337;28;20440;-65
2024/03/16 00:05:37;;;;;;;4.13;1.47;;;11.70;99.90;;;;;;5033793;28;20204;-67
2024/03/16 00:08:04;;;;;;;2.90;1.70;;;11.70;99.90;;;;;;5032075;28;20321;-66
2024/03/16 00:10:30;;;;;;;3.33;2.00;;;11.70;99.90;;;;;;5034215;28;20417;-66
2024/03/16 00:12:56;;;;;;;4.13;1.90;;;11.70;99.90;;;;;;5034219;28;20421;-65
2024/03/16 00:15:21;;;;;;;4.90;2.10;;;11.70;99.90;;;;;;5034460;28;20432;-66
2024/03/16 00:17:47;;;;;;;4.03;1.90;;;11.80;99.90;;;;;;5033142;28;20243;-66
2024/03/16 00:20:13;;;;;;;3.23;1.83;;;11.80;99.90;;;;;;5034425;28;20256;-65
2024/03/16 00:22:39;;;;;;;4.50;1.80;;;11.90;99.90;;;;;;5033687;28;21005;-65
2024/03/16 00:25:08;;;;;;;2.00;1.40;;;11.90;99.90;;;;;;5034369;28;20459;-65
2024/03/16 00:27:34;;;;;;;4.10;1.80;;;11.90;99.90;;;;;;5031948;28;22402;-65
2024/03/16 00:30:00;;;;;;;2.80;1.40;;;11.80;99.90;;;;;;5033100;28;20424;-66
2024/03/16 00:32:26;;;;;;;4.70;1.70;;;11.80;99.90;;;;;;5034042;28;20654;-66
2024/03/16 00:34:52;;;;;;;2.47;1.57;;;11.80;99.90;;;;;;5033990;28;20429;-65
2024/03/16 00:37:18;;;;;;;4.53;2.37;;;11.80;99.90;;;;;;5033628;28;21142;-66
2024/03/16 00:39:44;;;;;;;2.23;1.50;;;11.70;99.90;;;;;;5032260;28;20189;-66
2024/03/16 00:42:09;;;;;;;3.17;1.37;;;11.70;99.90;;;;;;5034004;28;20189;-66
2024/03/16 00:44:39;;;;;;;1.87;1.40;;;11.70;99.90;;;;;;5033278;28;20425;-67
2024/03/16 00:47:05;;;;;;;3.57;2.43;;;11.70;99.90;;;;;;5033751;28;20288;-66
2024/03/16 00:49:31;;;;;;;5.13;1.60;;;11.80;99.90;;;;;;5033470;28;20475;-66
2024/03/16 00:51:57;;;;;;;2.40;1.50;;;11.80;99.90;;;;;;5031699;28;20497;-66
2024/03/16 00:54:23;;;;;;;1.63;1.53;;;11.70;99.90;;;;;;5033290;28;20853;-66
2024/03/16 00:56:51;;;;;;;3.93;1.83;;;11.70;99.90;;;;;;5033461;28;20865;-65
2024/03/16 00:59:17;;;;;;;2.33;1.40;;;11.70;99.90;;;;;;5032452;28;20541;-65
2024/03/16 01:01:44;;;;;;;2.27;1.50;;;11.70;99.90;;;;;;5032868;28;20429;-66
2024/03/16 01:04:10;;;;;;;3.43;1.83;;;11.70;99.90;;;;;;5034091;28;20427;-65
2024/03/16 01:06:36;;;;;;;3.13;1.43;;;11.70;99.90;;;;;;5032865;28;20433;-65
2024/03/16 01:09:03;;;;;;;4.20;2.20;;;11.60;99.90;;;;;;5033718;28;20964;-67
2024/03/16 01:11:29;;;;;;;5.10;1.33;;;11.70;99.90;;;;;;5032966;28;20436;-65
2024/03/16 01:13:55;;;;;;;2.93;1.10;;;11.60;99.90;;;;;;5032977;28;20430;-66
2024/03/16 01:16:21;;;;;;;5.07;1.67;;;11.70;99.90;;;;;;5033183;28;20935;-66
2024/03/16 01:18:47;;;;;;;1.93;1.57;;;11.70;99.90;;;;;;5032311;28;20183;-66
2024/03/16 01:21:12;;;;;;;2.43;1.20;;;11.70;99.90;;;;;;5033113;28;20433;-67
2024/03/16 01:23:38;;;;;;;1.80;1.10;;;11.70;99.90;;;;;;5031683;28;20189;-66
2024/03/16 01:26:05;;;;;;;2.03;1.43;;;11.70;99.90;;;;;;5032850;28;20244;-66
2024/03/16 01:28:32;;;;;;;3.77;1.53;;;11.70;99.90;;;;;;5033037;28;20472;-66
2024/03/16 01:30:57;;;;;;;5.53;2.07;;;11.70;99.90;;;;;;5031247;28;20966;-65
2024/03/16 01:33:24;;;;;;;4.87;2.67;;;11.70;99.90;;;;;;5032337;28;20540;-66
2024/03/16 01:35:50;;;;;;;1.97;1.53;;;11.70;99.90;;;;;;5032289;28;20182;-66
2024/03/16 01:38:16;;;;;;;3.03;1.63;;;11.70;99.90;;;;;;5029766;28;20429;-66
2024/03/16 01:40:43;;;;;;;4.20;1.40;;;11.70;99.90;;;;;;5032784;28;20827;-65
2024/03/16 01:43:13;;;;;;;5.00;1.50;;;11.70;99.90;;;;;;5032366;28;20918;-66
2024/03/16 01:45:42;;;;;;;4.47;1.40;;;11.70;99.90;;;;;;5032502;28;20498;-66
2024/03/16 01:48:12;;;;;;;2.97;1.33;;;11.70;99.90;;;;;;5031274;28;20549;-66
2024/03/16 01:50:41;;;;;;;3.80;1.37;;;11.70;99.90;;;;;;5031809;28;20428;-65
2024/03/16 01:53:10;;;;;;;7.87;1.87;;;11.70;99.90;;;;;;5032646;28;20911;-66
2024/03/16 01:55:38;;;;;;;5.63;1.07;;;11.70;99.90;;;;;;5032381;28;20516;-66
2024/03/16 01:58:06;;;;;;;3.10;1.50;;;11.70;99.90;;;;;;5031570;28;20425;-65
2024/03/16 02:00:33;;;;;;;3.20;1.33;;;11.70;99.90;;;;;;5032657;28;20529;-66
2024/03/16 02:02:59;;;;;;;4.83;1.70;;;11.70;99.90;;;;;;5031193;28;20479;-66
2024/03/16 02:05:25;;;;;;;4.80;1.80;;;11.70;99.90;;;;;;5032703;28;20441;-66
2024/03/16 02:07:51;;;;;;;4.27;1.50;;;11.70;99.90;;;;;;5030682;28;20431;-67
2024/03/16 02:10:17;;;;;;;3.67;1.60;;;11.70;99.90;;;;;;5030682;28;20429;-66
2024/03/16 02:12:43;;;;;;;5.40;1.70;;;11.70;99.90;;;;;;5032236;28;20421;-66
2024/03/16 02:15:13;;;;;;;5.73;1.83;;;11.70;99.90;;;;;;5031750;28;20428;-66
2024/03/16 02:17:39;;;;;;;5.47;1.80;;;11.70;99.90;;;;;;5031288;28;20424;-66
2024/03/16 02:20:09;;;;;;;5.40;1.70;;;11.70;99.90;;;;;;5030719;28;20923;-66
2024/03/16 02:22:35;;;;;;;4.87;1.33;;;11.70;99.90;;;;;;5031457;28;20457;-67
2024/03/16 02:25:02;;;;;;;4.50;1.60;;;11.70;99.90;;;;;;5030153;28;20432;-66
2024/03/16 02:27:27;;;;;;;5.87;1.50;;;11.70;99.90;;;;;;5031747;28;21153;-66
2024/03/16 02:29:53;;;;;;;3.30;1.67;;;11.70;99.90;;;;;;5031320;28;20468;-67
2024/03/16 02:32:19;;;;;;;3.03;1.67;;;11.70;99.90;;;;;;5031561;28;20266;-66
2024/03/16 02:34:44;;;;;;;3.57;1.63;;;11.60;99.90;;;;;;5032171;28;20636;-65
2024/03/16 02:37:10;;;;;;;3.80;1.30;;;11.60;99.90;;;;;;5031294;28;20186;-65
2024/03/16 02:39:36;;;;;;;1.37;1.27;;;11.70;99.90;;;;;;5030837;28;20178;-65
2024/03/16 02:42:03;;;;;;;5.87;1.80;;;11.70;99.90;;;;;;5031183;28;20725;-65
2024/03/16 02:44:32;;;;;;;4.33;1.47;;;11.70;99.90;;;;;;5031223;28;20173;-65
2024/03/16 02:46:58;;;;;;;3.63;1.40;;;11.70;99.90;;;;;;5030745;28;20809;-67
2024/03/16 02:49:25;;;;;;;2.60;0.97;;;11.60;99.90;;;;;;5029851;28;20473;-66
2024/03/16 02:51:51;;;;;;;5.30;1.47;;;11.70;99.90;;;;;;5030692;28;20448;-66
2024/03/16 02:54:18;;;;;;;4.07;2.07;;;11.70;99.90;;;;;;5030672;28;21208;-66
2024/03/16 02:56:44;;;;;;;4.60;1.40;;;11.70;99.90;;;;;;5031142;28;20437;-66
2024/03/16 02:59:10;;;;;;;4.67;1.77;;;11.70;99.90;;;;;;5029748;28;20459;-66
2024/03/16 03:01:37;;;;;;;2.47;1.40;;;11.60;99.90;;;;;;5030731;28;20525;-66
2024/03/16 03:04:06;;;;;;;8.37;1.70;;;11.70;99.90;;;;;;5030798;28;20196;-66
2024/03/16 03:06:32;;;;;;;2.50;1.27;;;11.70;99.90;;;;;;5030735;28;20894;-65
2024/03/16 03:08:58;;;;;;;8.63;2.10;;;11.70;99.90;;;;;;5027889;28;20869;-66
2024/03/16 03:11:28;;;;;;;5.30;1.80;;;11.60;99.90;;;;;;5030670;28;20781;-67
2024/03/16 03:13:53;;;;;;;4.23;1.43;;;11.60;99.90;;;;;;5030213;28;20425;-66
2024/03/16 03:16:20;;;;;;;3.10;1.30;;;11.60;99.90;;;;;;5029799;28;20458;-66
2024/03/16 03:18:48;;;;;;;2.83;1.60;;;11.60;99.90;;;;;;5030802;28;20244;-64
2024/03/16 03:21:15;;;;;;;6.73;2.00;;;11.60;99.90;;;;;;5029463;28;20424;-66
2024/03/16 03:23:41;;;;;;;5.23;1.77;;;11.60;99.90;;;;;;5030863;28;20424;-66
2024/03/16 03:26:08;;;;;;;3.13;1.83;;;11.70;99.90;;;;;;5029677;28;20479;-66
2024/03/16 03:28:35;;;;;;;6.90;2.50;;;11.70;99.90;;;;;;5029064;28;20488;-66
2024/03/16 03:31:02;;;;;;;4.70;2.10;;;11.70;99.90;;;;;;5030013;28;20610;-65
2024/03/16 03:33:27;;;;;;;6.13;2.50;;;11.70;99.90;;;;;;5029887;28;20436;-66
2024/03/16 03:35:53;;;;;;;10.00;2.40;;;11.70;99.90;;;;;;5029668;28;20422;-66
2024/03/16 03:38:19;;;;;;;6.73;2.50;;;11.70;99.90;;;;;;5027063;28;20235;-66
2024/03/16 03:40:44;;;;;;;6.47;2.87;;;11.70;99.90;;;;;;5030459;28;20566;-66
2024/03/16 03:43:22;;;;;;;5.90;2.73;;;11.70;99.90;;;;;;5030098;28;20183;-65
2024/03/16 03:45:52;;;;;;;3.53;2.13;;;11.70;99.90;;;;;;5031259;28;20269;-66
2024/03/16 03:48:35;;;;;;;6.47;3.13;;;11.70;99.90;;;;;;5021237;28;248316;-66
2024/03/16 03:51:02;;;;;;;12.83;3.53;;;11.60;99.90;;;;;;5030746;28;20509;-66
2024/03/16 03:53:28;;;;;;;4.27;3.10;;;11.60;99.90;;;;;;5030707;28;21075;-66
2024/03/16 03:55:54;;;;;;;5.87;3.10;;;11.60;99.90;;;;;;5030612;28;20433;-67
2024/03/16 03:58:20;;;;;;;4.87;3.30;;;11.60;99.90;;;;;;5030002;28;20181;-65
2024/03/16 04:00:47;;;;;;;5.53;3.30;;;11.60;99.90;;;;;;5030701;28;20182;-66
2024/03/16 04:03:13;;;;;;;5.53;3.33;;;11.60;99.90;;;;;;5030895;28;20845;-66
2024/03/16 04:05:39;;;;;;;6.33;2.93;;;11.60;99.90;;;;;;5030903;28;20435;-66
2024/03/16 04:08:06;;;;;;;6.73;3.87;;;11.60;99.90;;;;;;5030819;28;20578;-66
2024/03/16 04:10:36;;;;;;;7.20;2.90;;;11.60;99.90;;;;;;5030432;28;20511;-66
2024/03/16 04:13:02;;;;;;;7.87;3.33;;;11.60;99.90;;;;;;5030596;28;20462;-65
2024/03/16 04:15:28;;;;;;;6.73;3.40;;;11.70;99.90;;;;;;5030005;28;20429;-65
2024/03/16 04:17:54;;;;;;;6.03;2.80;;;11.60;99.90;;;;;;5029861;28;20424;-65
2024/03/16 04:20:21;;;;;;;6.27;3.63;;;11.60;99.90;;;;;;5029579;28;20435;-67
2024/03/16 04:22:48;;;;;;;7.90;3.20;;;11.50;99.90;;;;;;5030933;28;20622;-66
2024/03/16 04:25:14;;;;;;;9.63;4.17;;;11.50;99.90;;;;;;5029535;28;20489;-67
2024/03/16 04:27:41;;;;;;;6.30;3.50;;;11.50;99.90;;;;;;5029717;28;20437;-65
2024/03/16 04:30:08;;;;;;;5.70;3.27;;;11.60;99.90;;;;;;5030935;28;20437;-67
2024/03/16 04:32:34;;;;;;;5.10;3.90;;;11.60;99.90;;;;;;5030449;28;20432;-65
2024/03/16 04:35:01;;;;;;;8.97;3.83;;;11.60;99.90;;;;;;5028561;28;20435;-65
2024/03/16 04:37:26;;;;;;;6.17;3.57;;;11.60;99.90;;;;;;5031200;28;21349;-67
2024/03/16 04:39:53;;;;;;;6.27;5.03;;;11.50;99.90;;;;;;5030223;28;20433;-66
2024/03/16 04:42:19;;;;;;;5.07;3.60;;;11.60;99.90;;;;;;5031615;28;20182;-66
2024/03/16 04:44:44;;;;;;;7.00;3.87;;;11.50;99.90;;;;;;5031001;28;21338;-65
2024/03/16 04:47:10;;;;;;;7.70;4.77;;;11.50;99.90;;;;;;5031772;28;20511;-66
2024/03/16 04:49:36;;;;;;;6.63;4.20;;;11.50;99.90;;;;;;5034661;28;20224;-65
2024/03/16 04:52:02;;;;;;;7.73;4.50;;;11.50;99.90;;;;;;5035475;28;20186;-66
2024/03/16 04:54:28;;;;;;;4.43;3.80;;;11.50;99.90;;;;;;5034849;28;20178;-65
2024/03/16 04:56:54;;;;;;;7.17;5.37;;;11.50;99.90;;;;;;5034993;28;20435;-66
2024/03/16 04:59:19;;;;;;;5.50;4.47;;;11.50;99.90;;;;;;5033839;28;20442;-66
2024/03/16 05:01:45;;;;;;;6.37;4.63;;;11.50;99.90;;;;;;5034338;28;20182;-65
2024/03/16 05:04:12;;;;;;;7.10;6.10;;;11.50;99.90;;;;;;5033571;28;20653;-67
2024/03/16 05:06:40;;;;;;;9.43;6.20;;;11.50;99.90;;;;;;5034754;28;20892;-66
2024/03/16 05:09:06;;;;;;;7.73;6.70;;;11.50;99.90;;;;;;5034353;28;20503;-66
2024/03/16 05:11:32;;;;;;;8.33;7.30;;;11.50;99.90;;;;;;5033742;28;20440;-67
2024/03/16 05:13:59;;;;;;;11.40;8.00;;;11.50;99.90;;;;;;5034971;28;20489;-65
2024/03/16 05:16:25;;;;;;;14.50;8.97;;;11.50;99.90;;;;;;5032807;28;20780;-65
2024/03/16 05:18:51;;;;;;;12.73;9.57;;;11.50;99.90;;;;;;5034692;28;20429;-66
2024/03/16 05:21:17;;;;;;;14.20;8.87;;;11.50;99.90;;;;;;5034175;28;20914;-66
2024/03/16 05:23:46;;;;;;;12.27;8.93;;;11.50;99.90;;;;;;5034114;28;20425;-65
2024/03/16 05:26:13;;;;;;;11.80;9.77;;;11.50;99.90;;;;;;5034275;28;20186;-66
2024/03/16 05:28:39;;;;;;;13.20;9.77;;;11.50;99.90;;;;;;5033223;28;20949;-66
2024/03/16 05:31:05;;;;;;;10.90;8.33;;;11.50;99.90;;;;;;5034442;28;20431;-65
2024/03/16 05:33:31;;;;;;;15.70;10.07;;;11.50;99.90;;;;;;5033047;28;20193;-65
2024/03/16 05:35:58;;;;;;;15.73;9.13;;;11.50;99.90;;;;;;5033586;28;21200;-66
2024/03/16 05:38:24;;;;;;;11.70;9.00;;;11.50;99.90;;;;;;5032054;28;20491;-66
2024/03/16 05:40:50;;;;;;;12.87;9.47;;;11.50;99.90;;;;;;5034217;28;21531;-66
2024/03/16 05:43:16;;;;;;;10.23;8.10;;;11.60;99.90;;;;;;5000629;28;20288;-65
2024/03/16 05:45:41;;;;;;;12.03;9.47;;;11.50;99.90;;;;;;5033528;28;20487;-65
2024/03/16 05:48:07;;;;;;;12.87;9.33;;;11.50;99.90;;;;;;5033524;28;20703;-66
2024/03/16 05:50:35;;;;;;;15.17;9.70;;;11.60;99.90;;;;;;5032920;28;20687;-66
2024/03/16 05:53:00;;;;;;;14.70;9.00;;;11.50;99.90;;;;;;5033452;28;20182;-66
2024/03/16 05:55:26;;;;;;;14.10;10.23;;;11.50;99.90;;;;;;5033212;28;20453;-66
2024/03/16 05:57:52;;;;;;;12.30;10.40;;;11.50;99.90;;;;;;5033350;28;20225;-66
2024/03/16 06:00:19;;;;;;;13.53;10.40;;;11.50;99.90;;;;;;5033080;28;20794;-66
2024/03/16 06:02:45;;;;;;;13.20;10.33;;;11.50;99.90;;;;;;5031733;28;20185;-66
2024/03/16 06:05:11;;;;;;;16.00;10.43;;;11.50;99.90;;;;;;5032508;28;20939;-65
2024/03/16 06:07:37;;;;;;;12.50;9.80;;;11.50;99.90;;;;;;5032299;28;20955;-66
2024/03/16 06:10:03;;;;;;;13.23;8.90;;;11.50;99.90;;;;;;5033712;28;20225;-66
2024/03/16 06:12:30;;;;;;;12.50;8.60;;;11.50;99.90;;;;;;5033287;28;20199;-66
2024/03/16 06:14:59;;;;;;;14.03;10.03;;;11.50;99.90;;;;;;5032834;28;20194;-65
2024/03/16 06:17:25;;;;;;;14.30;10.30;;;11.50;99.90;;;;;;5033127;28;20422;-65
2024/03/16 06:19:52;;;;;;;15.00;9.43;;;11.50;99.90;;;;;;5031809;28;20421;-66
2024/03/16 06:22:18;;;;;;;13.80;9.23;;;11.50;99.90;;;;;;5033027;28;20264;-65
2024/03/16 06:24:47;;;;;;;12.30;8.00;;;11.50;99.90;;;;;;5032046;28;21003;-67
2024/03/16 06:27:18;;;;;;;13.80;7.27;;;11.50;99.90;;;;;;5032540;28;20480;-65
2024/03/16 06:29:51;;;;;;;12.60;9.90;;;11.50;99.90;;;;;;5032326;28;20473;-65
2024/03/16 06:32:20;;;;;;;15.67;9.00;;;11.50;99.90;;;;;;5033411;28;20436;-65
2024/03/16 06:34:48;;;;;;;14.10;9.10;;;11.50;99.90;;;;;;5030923;28;20440;-65
2024/03/16 06:37:13;;;;;;;13.87;8.97;;;11.50;99.90;;;;;;5032990;28;20425;-65
2024/03/16 06:39:40;;;;;;;12.47;8.70;;;11.50;99.90;;;;;;5030786;28;20425;-66
2024/03/16 06:42:06;;;;;;;8.70;6.80;;;11.40;99.90;;;;;;5032881;28;20723;-66
2024/03/16 06:44:32;;;;;;;9.97;7.70;;;11.40;99.90;;;;;;5032241;28;20433;-67
2024/03/16 06:46:58;;;;;;;12.00;8.27;;;11.40;99.90;;;;;;5031898;28;20440;-65
2024/03/16 06:49:24;;;;;;;9.17;7.53;;;11.40;99.90;;;;;;5032775;28;20525;-66
2024/03/16 06:51:50;;;;;;;9.30;6.43;;;11.30;99.90;;;;;;5032205;28;20478;-66
2024/03/16 06:54:15;;;;;;;6.50;5.80;;;11.30;99.90;;;;;;5032740;28;20836;-66
2024/03/16 06:56:41;;;;;;;7.40;5.70;;;11.30;99.90;;;;;;5029456;28;20264;-65
2024/03/16 06:59:07;;;;;;;7.43;5.03;;;11.20;99.90;;;;;;5032407;28;20182;-65
2024/03/16 07:01:33;;;;;;;5.60;5.10;;;11.20;99.90;;;;;;5032178;28;20975;-65
2024/03/16 07:03:58;;;;;;;5.57;5.03;;;11.10;99.90;;;;;;5031744;28;20424;-65
2024/03/16 07:06:24;;;;;;;6.53;5.37;;;11.10;99.90;;;;;;5032135;28;20185;-65
2024/03/16 07:08:50;;;;;;;5.57;4.90;;;11.00;99.90;;;;;;5031096;28;20213;-65
2024/03/16 07:11:15;;;;;;;6.03;4.67;;;11.00;99.90;;;;;;5031717;28;20194;-65
2024/03/16 07:13:41;;;;;;;6.57;5.07;;;11.00;99.90;;;;;;5031322;28;20190;-65
2024/03/16 07:16:14;;;;;;;4.20;3.80;;;11.00;99.90;;;;;;5032429;28;20186;-66
2024/03/16 07:18:44;;;;;;;4.47;3.63;;;11.00;99.90;;;;;;5031658;28;20198;-66
2024/03/16 07:21:10;;;;;;;3.13;2.83;;;10.90;99.90;;;;;;5031646;28;20428;-66
2024/03/16 07:23:36;;;;;;;4.00;3.20;;;10.90;99.90;;;;;;5031973;28;20417;-65
2024/03/16 07:26:02;;;;;;;5.53;3.63;;;10.90;99.90;;;;;;5030485;28;20640;-65
2024/03/16 07:28:29;;;;;;;4.03;3.63;;;10.90;99.90;;;;;;5031603;28;20525;-66
2024/03/16 07:30:55;;;;;;;4.20;3.80;;;10.90;99.90;;;;;;5030567;28;20436;-66
2024/03/16 07:33:21;;;;;;;5.50;4.60;;;10.90;99.90;;;;;;5031969;28;20428;-65
2024/03/16 07:35:50;;;;;;;5.00;4.50;;;10.90;99.90;;;;;;5031381;28;20428;-66
2024/03/16 07:38:17;;;;;;;5.30;4.80;;;10.90;99.90;;;;;;5030064;28;20737;-67
2024/03/16 07:40:43;;;;;;;5.20;4.70;;;10.90;99.90;;;;;;5030720;28;20425;-65
2024/03/16 07:43:09;;;;;;;6.20;5.07;;;10.90;99.90;;;;;;5030720;28;20420;-66
2024/03/16 07:45:42;;;;;;;7.37;5.20;;;10.90;99.90;;;;;;5031724;28;20540;-65
2024/03/16 07:48:11;;;;;;;5.33;4.43;;;10.80;99.90;;;;;;5031170;28;20455;-65
2024/03/16 07:50:37;;;;;;;5.40;4.50;;;10.80;99.90;;;;;;5030675;28;20427;-67
2024/03/16 07:53:03;;;;;;;6.10;3.80;;;10.80;99.90;;;;;;5029716;28;21005;-67
2024/03/16 07:55:30;;;;;;;5.40;3.73;;;10.80;99.90;;;;;;5031821;28;20436;-65
2024/03/16 07:57:55;;;;;;;6.47;4.13;;;10.80;99.90;;;;;;5030153;28;20436;-66
2024/03/16 08:00:21;;;;;;;5.50;3.70;;;10.80;99.90;;;;;;5032347;28;21468;-65
2024/03/16 08:02:47;;;;;;;4.67;4.27;;;10.80;99.90;;;;;;5030573;28;20198;-65
2024/03/16 08:05:13;;;;;;;6.70;3.70;;;10.80;99.90;;;;;;5031339;28;20198;-65
2024/03/16 08:07:40;;;;;;;4.50;2.87;;;10.80;99.90;;;;;;5030863;28;20272;-65
2024/03/16 08:10:07;;;;;;;3.70;3.13;;;10.80;99.90;;;;;;5029382;28;20622;-66
2024/03/16 08:12:33;;;;;;;3.93;2.70;;;10.80;99.90;;;;;;5030412;28;20479;-66
2024/03/16 08:14:58;;;;;;;5.20;2.63;;;10.80;99.90;;;;;;5030828;28;20421;-66
2024/03/16 08:17:24;;;;;;;3.50;3.03;;;10.80;99.90;;;;;;5031107;28;20501;-66
2024/03/16 08:19:50;;;;;;;3.53;3.23;;;10.80;99.90;;;;;;5031352;28;20243;-65
2024/03/16 08:22:16;;;;;;;3.63;3.20;;;10.80;99.90;;;;;;5031431;28;20190;-65
2024/03/16 08:24:41;;;;;;;4.33;3.60;;;10.90;99.90;;;;;;5035725;28;20764;-66
2024/03/16 08:27:07;;;;;;;5.93;3.43;;;10.90;99.90;;;;;;5033842;28;20188;-66
2024/03/16 08:29:33;;;;;;;4.20;3.37;;;11.00;99.90;;;;;;5034723;28;20756;-65
2024/03/16 08:31:59;;;;;;;4.93;3.80;;;11.00;99.90;;;;;;5034039;28;20436;-65
2024/03/16 08:34:25;;;;;;;4.10;3.70;;;11.00;99.90;;;;;;5035059;28;20216;-65
2024/03/16 08:36:50;;;;;;;6.03;3.63;;;11.00;99.90;;;;;;5034417;28;20189;-65
2024/03/16 08:39:17;;;;;;;5.47;3.40;;;11.00;99.90;;;;;;5032224;28;20985;-66
2024/03/16 08:41:42;;;;;;;4.90;3.73;;;10.90;99.90;;;;;;5033913;28;20183;-66
2024/03/16 08:44:08;;;;;;;4.97;3.60;;;10.90;99.90;;;;;;5034499;28;20424;-65
2024/03/16 08:46:34;;;;;;;4.33;2.90;;;10.90;99.90;;;;;;5033895;28;20947;-65
2024/03/16 08:49:00;;;;;;;4.67;3.50;;;10.90;99.90;;;;;;5033773;28;20212;-65
2024/03/16 08:51:26;;;;;;;4.83;4.00;;;11.00;99.90;;;;;;5033447;28;20471;-66
2024/03/16 08:53:52;;;;;;;4.30;3.33;;;11.00;99.90;;;;;;5034945;28;20966;-65
2024/03/16 08:56:18;;;;;;;3.47;2.60;;;11.00;99.90;;;;;;5033299;28;20275;-66
2024/03/16 08:58:44;;;;;;;5.30;1.73;;;10.90;99.90;;;;;;5034720;28;20425;-67
2024/03/16 09:01:09;;;;;;;3.10;1.60;;;10.90;99.90;;;;;;5033863;28;20198;-66
2024/03/16 09:03:35;;;;;;;4.40;1.90;;;10.80;99.90;;;;;;5033951;28;20197;-66
2024/03/16 09:06:01;;;;;;;2.60;1.80;;;10.80;99.90;;;;;;5033810;28;20750;-66
2024/03/16 09:08:28;;;;;;;3.30;2.20;;;10.80;99.90;;;;;;5033835;28;20798;-66
2024/03/16 09:10:54;;;;;;;3.00;1.27;;;10.70;99.90;;;;;;5033367;28;20441;-65
2024/03/16 09:13:20;;;;;;;4.30;1.83;;;10.80;99.90;;;;;;5034053;28;20614;-65
2024/03/16 09:15:45;;;;;;;1.90;1.60;;;10.70;99.90;;;;;;5033921;28;20661;-66
2024/03/16 09:18:11;;;;;;;4.30;1.30;;;10.80;99.90;;;;;;5033375;28;20185;-66
2024/03/16 09:20:43;;;;;;;4.27;1.17;;;10.80;99.90;;;;;;5033267;28;20232;-66
2024/03/16 09:23:09;;;;;;;1.90;0.93;;;10.80;99.90;;;;;;5031760;28;20424;-65
2024/03/16 09:25:36;;;;;;;2.13;0.90;;;10.80;99.90;;;;;;5033048;28;20775;-66
2024/03/16 09:28:02;;;;;;;2.13;0.90;;;10.80;99.90;;;;;;5033764;28;20182;-66
2024/03/16 09:30:28;;;;;;;2.60;1.03;;;10.80;99.90;;;;;;5032178;28;20425;-66
2024/03/16 09:32:53;;;;;;;3.13;0.67;;;10.70;99.90;;;;;;5033882;28;20467;-66
2024/03/16 09:35:19;;;;;;;4.93;1.23;;;10.70;99.90;;;;;;5032733;28;20189;-65
2024/03/16 09:37:45;;;;;;;3.90;1.30;;;10.70;99.90;;;;;;5033378;28;20194;-65
2024/03/16 09:40:13;;;;;;;3.33;1.33;;;10.70;99.90;;;;;;5032502;28;20180;-66
2024/03/16 09:42:39;;;;;;;3.13;1.27;;;10.70;99.90;;;;;;5033158;28;20181;-66
2024/03/16 09:45:19;;;;;;;3.53;1.30;;;10.70;99.90;;;;;;5033543;28;20425;-66
2024/03/16 09:47:45;;;;;;;2.10;1.30;;;10.80;99.90;;;;;;5032140;28;20445;-66
2024/03/16 09:50:13;;;;;;;2.63;2.10;;;10.80;99.90;;;;;;5032883;28;20468;-65
2024/03/16 09:52:42;;;;;;;3.03;0.90;;;10.80;99.90;;;;;;5032108;28;20494;-65
2024/03/16 09:55:11;;;;;;;4.00;1.17;;;10.80;99.90;;;;;;5032781;28;20467;-67
2024/03/16 09:57:38;;;;;;;2.73;1.03;;;10.80;99.90;;;;;;5032157;28;20433;-66
2024/03/16 10:00:14;;;;;;;2.40;1.00;;;10.80;99.90;;;;;;5031936;28;20455;-66
2024/03/16 10:02:40;;;;;;;1.60;1.27;;;10.80;99.90;;;;;;5030996;28;20440;-66
2024/03/16 10:05:12;;;;;;;3.07;1.20;;;10.80;99.90;;;;;;5031587;28;20425;-66
2024/03/16 10:07:39;;;;;;;2.93;1.10;;;10.80;99.90;;;;;;5063787;28;20942;-66
2024/03/16 10:10:10;;;;;;;1.30;0.93;;;10.80;99.90;;;;;;5032888;28;20499;-65
2024/03/16 10:12:38;;;;;;;2.53;0.90;;;10.80;99.90;;;;;;5031121;28;20441;-65
2024/03/16 10:15:09;;;;;;;2.67;0.90;;;10.80;99.90;;;;;;5032235;28;20429;-66
2024/03/16 10:17:37;;;;;;;1.90;0.90;;;10.80;99.90;;;;;;5031120;28;21335;-65
2024/03/16 10:20:15;;;;;;;3.53;0.80;;;10.80;99.90;;;;;;5032288;28;20431;-66
2024/03/16 10:22:47;;;;;;;4.00;0.80;;;10.70;99.90;;;;;;5032487;28;20425;-66
2024/03/16 10:25:15;;;;;;;3.37;1.17;;;10.80;99.90;;;;;;5032721;28;20433;-66
2024/03/16 10:27:45;;;;;;;4.87;1.30;;;10.80;99.90;;;;;;5031950;28;20417;-65
2024/03/16 10:30:13;;;;;;;2.07;1.20;;;10.80;99.90;;;;;;5031845;28;20499;-66
2024/03/16 10:32:49;;;;;;;7.70;2.60;;;10.80;99.90;;;;;;5031817;28;20432;-66
2024/03/16 10:35:25;;;;;;;2.40;1.50;;;10.80;99.90;;;;;;5031165;28;20487;-65
2024/03/16 10:37:51;;;;;;;2.50;1.40;;;10.90;99.90;;;;;;5031723;28;20424;-66
2024/03/16 10:40:18;;;;;;;3.30;1.37;;;10.90;99.90;;;;;;5030325;28;20429;-66
2024/03/16 10:42:48;;;;;;;3.20;1.40;;;11.00;99.90;;;;;;5032026;28;20848;-66
2024/03/16 10:45:16;;;;;;;2.03;1.20;;;11.00;99.90;;;;;;5030852;28;20437;-65
2024/03/16 10:47:43;;;;;;;6.43;1.70;;;11.00;99.90;;;;;;5031480;28;20527;-66
2024/03/16 10:50:10;;;;;;;1.73;1.10;;;11.00;99.90;;;;;;5030687;28;20468;-67
2024/03/16 10:52:41;;;;;;;2.80;1.17;;;10.90;99.90;;;;;;5031646;28;20428;-65
2024/03/16 10:55:23;;;;;;;2.47;1.00;;;10.90;99.90;;;;;;5031728;28;20426;-65
2024/03/16 10:57:50;;;;;;;1.90;1.07;;;10.80;99.90;;;;;;5030534;28;20973;-65
2024/03/16 11:00:36;;;;;;;3.70;1.10;;;10.80;99.90;;;;;;5031617;28;20426;-66
2024/03/16 11:03:09;;;;;;;4.70;1.17;;;10.80;99.90;;;;;;5031923;28;20424;-66
2024/03/16 11:05:40;;;;;;;1.63;1.47;;;10.70;99.90;;;;;;5030235;28;20502;-65
2024/03/16 11:08:08;;;;;;;3.60;1.33;;;10.70;99.90;;;;;;5031270;28;20516;-66
2024/03/16 11:10:39;;;;;;;2.13;1.00;;;10.70;99.90;;;;;;5029771;28;20440;-67
2024/03/16 11:13:20;;;;;;;1.93;1.63;;;10.70;99.90;;;;;;5031301;28;20418;-65
2024/03/16 11:15:47;;;;;;;3.40;1.43;;;10.80;99.90;;;;;;5031264;28;20461;-66
2024/03/16 11:18:21;;;;;;;2.37;0.80;;;10.80;99.90;;;;;;5030984;28;20509;-65
2024/03/16 11:20:53;;;;;;;1.87;1.30;;;10.80;99.90;;;;;;5031015;28;20467;-65
2024/03/16 11:23:32;;;;;;;1.57;0.90;;;10.90;99.90;;;;;;5030266;28;20425;-66
2024/03/16 11:26:19;;;;;;;3.33;1.20;;;10.90;99.90;;;;;;5031100;28;20432;-65
2024/03/16 11:28:46;;;;;;;1.80;1.03;;;10.90;99.90;;;;;;5029436;28;21009;-66
2024/03/16 11:31:37;;;;;;;2.80;1.40;;;10.90;99.90;;;;;;5031465;28;20424;-67
2024/03/16 11:34:04;;;;;;;3.30;1.30;;;10.90;99.90;;;;;;5031356;28;20429;-65
2024/03/16 11:36:30;;;;;;;3.03;1.13;;;10.90;99.90;;;;;;5029874;28;20433;-66
2024/03/16 11:38:56;;;;;;;4.30;2.10;;;10.90;99.90;;;;;;5029738;28;20520;-65
2024/03/16 11:41:22;;;;;;;2.87;1.37;;;10.90;99.90;;;;;;5030384;28;20531;-65
2024/03/16 11:43:51;;;;;;;3.17;1.40;;;10.90;99.90;;;;;;5030555;28;20479;-65
2024/03/16 11:46:17;;;;;;;1.93;0.90;;;10.90;99.90;;;;;;5029265;28;20499;-66
2024/03/16 11:48:43;;;;;;;1.40;1.10;;;10.80;99.90;;;;;;5030696;28;21034;-66
2024/03/16 11:51:13;;;;;;;3.20;1.70;;;10.80;99.90;;;;;;5032598;28;20433;-65
2024/03/16 11:53:42;;;;;;;5.23;2.10;;;10.80;99.90;;;;;;5031611;28;21149;-65
2024/03/16 11:56:11;;;;;;;3.60;1.27;;;10.80;99.90;;;;;;5032016;28;20421;-66
2024/03/16 11:58:39;;;;;;;3.00;1.23;;;10.80;99.90;;;;;;5033273;28;20910;-65
2024/03/16 12:01:15;;;;;;;3.97;1.60;;;10.80;99.90;;;;;;5034800;28;20439;-67
2024/03/16 12:03:41;;;;;;;3.17;1.10;;;10.80;99.90;;;;;;5034650;28;21304;-66
2024/03/16 12:06:09;;;;;;;3.20;1.50;;;10.80;99.90;;;;;;5035787;28;20435;-66
2024/03/16 12:08:36;;;;;;;3.33;1.50;;;10.80;99.90;;;;;;5033797;28;20536;-65
2024/03/16 12:11:03;;;;;;;3.20;1.37;;;10.90;99.90;;;;;;5035357;28;20475;-66
2024/03/16 12:13:28;;;;;;;4.00;1.67;;;10.90;99.90;;;;;;5035660;28;20436;-66
2024/03/16 12:15:55;;;;;;;1.63;1.30;;;10.90;99.90;;;;;;5034972;28;20504;-66
2024/03/16 12:18:22;;;;;;;3.50;1.43;;;10.90;99.90;;;;;;5034700;28;20182;-66
2024/03/16 12:20:49;;;;;;;2.50;1.40;;;11.00;99.90;;;;;;5034342;28;20754;-66
2024/03/16 12:23:15;;;;;;;3.33;2.10;;;11.00;99.90;;;;;;5034193;28;20428;-66
2024/03/16 12:25:41;;;;;;;4.43;3.10;;;11.10;99.90;;;;;;5034243;28;20461;-66
2024/03/16 12:28:08;;;;;;;1.57;1.37;;;11.10;99.90;;;;;;5035337;28;20543;-66
2024/03/16 12:30:34;;;;;;;2.30;1.67;;;11.20;99.90;;;;;;5033760;28;20182;-66
2024/03/16 12:33:00;;;;;;;3.43;1.73;;;11.20;99.90;;;;;;5034628;28;20487;-66
2024/03/16 12:35:31;;;;;;;2.97;1.73;;;11.20;99.90;;;;;;5034625;28;20424;-66
2024/03/16 12:37:57;;;;;;;2.97;1.63;;;11.30;99.90;;;;;;5034443;28;20275;-66
2024/03/16 12:40:23;;;;;;;2.30;2.10;;;11.30;99.90;;;;;;5033808;28;20420;-66
2024/03/16 12:42:50;;;;;;;1.50;1.27;;;11.40;99.90;;;;;;5035217;28;20482;-65
2024/03/16 12:45:16;;;;;;;3.93;1.77;;;11.40;99.90;;;;;;5034022;28;20271;-66